Impacts TAF Board
For situational awareness. Not to be used for flight planning purposes.
IDs:

KCLE - Cleveland/Hopkins In, OH, US

Issued at 0859 UTC 16 Feb 2019
Updated at 1125 UTC 16 Feb 2019
Potential Impact None Slight Moderate High
Time<<17/00Z 17/01Z 17/02Z 17/03Z 17/04Z 17/05Z 17/06Z 17/07Z 17/08Z 17/09Z 17/10Z 17/11Z 17/12Z>>
Type PRVL PRVL PRVL PRVL PRVL PRVL PRVL PRVL PRVL PRVL PRVL PRVL
VIS >6 >6 >6 >6 >6 >6 >6 >6 >6 >6 >6 >6
CIG 50 50 50 50 50 50 50 50 50 50 50 50
Cover BKN BKN BKN BKN BKN BKN BKN BKN BKN BKN BKN BKN
FltCat VFR VFR VFR VFR VFR VFR VFR VFR VFR VFR VFR VFR
WX -- -- -- -- -- -- -- -- -- -- -- --
WDir 20 20 20 20 20 60 60 60 60 60 60 60
WSpd 7 7 7 7 7 5 5 5 5 5 5 5
WGst -- -- -- -- -- -- -- -- -- -- -- --
Raw TAF
KCLE 160859Z 1609/1712 34007KT P6SM BKN025
  FM161900 01007KT P6SM BKN025
  FM162200 02007KT P6SM BKN050
  FM170500 06005KT P6SM BKN050


METAR Board
Radar Display
Forecast Discussion
For situational awareness. Not to be used for flight planning purposes.